createdAt,value
2018-06-05T00:00:20.810Z,26.73
2018-06-05T00:00:54.150Z,28.63
2018-06-05T00:01:27.821Z,28.87
2018-06-05T00:02:01.384Z,29.07
2018-06-05T00:02:34.943Z,27.77
2018-06-05T00:03:08.464Z,28.15
2018-06-05T00:03:41.800Z,28.13
2018-06-05T00:04:15.363Z,27.17
2018-06-05T00:04:48.406Z,27.00
2018-06-05T00:05:21.994Z,27.93
2018-06-05T00:05:55.306Z,28.33
2018-06-05T00:06:28.917Z,29.37
2018-06-05T00:07:02.208Z,30.90
2018-06-05T00:07:35.493Z,27.50
2018-06-05T00:08:08.801Z,29.33
2018-06-05T00:08:42.461Z,29.07
2018-06-05T00:09:15.868Z,28.10
2018-06-05T00:09:49.454Z,27.37
2018-06-05T00:10:22.790Z,30.03
2018-06-05T00:10:56.089Z,29.30
2018-06-05T00:11:29.663Z,28.45
2018-06-05T00:12:03.001Z,28.10
2018-06-05T00:12:36.312Z,29.80
2018-06-05T00:13:09.365Z,30.50
2018-06-05T00:13:42.692Z,29.60
2018-06-05T00:14:16.047Z,29.40
2018-06-05T00:14:49.329Z,30.93
2018-06-05T00:15:22.644Z,27.93
2018-06-05T00:15:55.962Z,28.27
2018-06-05T00:16:29.578Z,29.07
2018-06-05T00:17:02.858Z,28.23
2018-06-05T00:17:36.160Z,29.40
2018-06-05T00:18:09.810Z,29.75
2018-06-05T00:18:43.113Z,29.73
2018-06-05T00:19:16.496Z,28.80
2018-06-05T00:19:49.814Z,29.77
2018-06-05T00:20:23.463Z,27.80
2018-06-05T00:20:56.768Z,30.60
2018-06-05T00:21:30.075Z,31.47
2018-06-05T00:22:03.395Z,30.33
2018-06-05T00:22:36.712Z,30.07
2018-06-05T00:23:10.103Z,29.00
2018-06-05T00:23:44.841Z,30.57
2018-06-05T00:24:18.131Z,30.10
2018-06-05T00:24:51.409Z,31.40
2018-06-05T00:25:24.747Z,32.13
2018-06-05T00:25:58.053Z,31.17
2018-06-05T00:26:31.438Z,30.50
2018-06-05T00:27:05.143Z,31.40
2018-06-05T00:27:38.446Z,29.73
2018-06-05T00:28:11.761Z,30.10
2018-06-05T00:28:45.059Z,32.90
2018-06-05T00:29:18.357Z,33.27
2018-06-05T00:29:51.633Z,30.20
2018-06-05T00:30:24.931Z,30.20
2018-06-05T00:30:58.280Z,30.30
2018-06-05T00:31:31.559Z,30.50
2018-06-05T00:32:04.857Z,31.10
2018-06-05T00:32:38.145Z,32.10
2018-06-05T00:33:11.514Z,32.27
2018-06-05T00:33:44.801Z,31.27
2018-06-05T00:34:18.785Z,32.20
2018-06-05T00:34:52.105Z,30.77
2018-06-05T00:35:25.427Z,32.10
2018-06-05T00:35:58.687Z,33.20
2018-06-05T00:36:32.003Z,33.43
2018-06-05T00:37:05.290Z,31.77
2018-06-05T00:37:38.573Z,30.43
2018-06-05T00:38:12.186Z,31.95
2018-06-05T00:38:45.531Z,30.07
2018-06-05T00:39:18.959Z,32.15
2018-06-05T00:39:52.241Z,31.83
2018-06-05T00:40:25.631Z,34.23
2018-06-05T00:40:59.559Z,33.33
2018-06-05T00:41:33.119Z,32.58
2018-06-05T00:42:06.681Z,32.48
2018-06-05T00:42:39.981Z,31.27
2018-06-05T00:43:13.561Z,33.67
2018-06-05T00:43:46.869Z,33.70
2018-06-05T00:44:20.195Z,33.10
2018-06-05T00:44:53.483Z,32.50
2018-06-05T00:45:27.036Z,32.50
2018-06-05T00:46:00.313Z,31.83
2018-06-05T00:46:33.557Z,32.03
2018-06-05T00:47:07.205Z,33.80
2018-06-05T00:47:40.756Z,31.95
2018-06-05T00:48:14.049Z,32.53
2018-06-05T00:48:47.594Z,32.60
2018-06-05T00:49:21.501Z,33.55
2018-06-05T00:49:55.099Z,33.60
2018-06-05T00:50:28.711Z,32.98
2018-06-05T00:51:08.751Z,31.33
2018-06-05T00:51:53.911Z,32.65
2018-06-05T00:52:27.516Z,30.77
2018-06-05T00:53:01.103Z,31.17
2018-06-05T00:53:34.705Z,31.17
2018-06-05T00:54:08.277Z,33.60
2018-06-05T00:54:41.926Z,32.83
2018-06-05T00:55:15.997Z,29.55
2018-06-05T00:55:49.566Z,32.15
2018-06-05T00:56:23.541Z,32.23
2018-06-05T00:56:56.855Z,30.70
2018-06-05T00:57:30.159Z,33.30
2018-06-05T00:58:03.731Z,31.55
2018-06-05T00:58:37.053Z,31.50
2018-06-05T00:59:10.641Z,31.05
2018-06-05T00:59:44.305Z,33.70
2018-06-05T01:00:17.621Z,32.23
2018-06-05T01:00:50.883Z,33.30
2018-06-05T01:01:24.160Z,33.50
2018-06-05T01:01:57.523Z,31.07
2018-06-05T01:02:30.848Z,32.20
2018-06-05T01:03:04.787Z,33.03
2018-06-05T01:03:38.414Z,32.03
2018-06-05T01:04:11.687Z,32.40
2018-06-05T01:04:44.969Z,33.90
2018-06-05T01:05:18.283Z,34.70
2018-06-05T01:05:51.586Z,31.93
2018-06-05T01:06:24.873Z,32.77
2018-06-05T01:06:58.204Z,31.23
2018-06-05T01:07:32.209Z,33.83
2018-06-05T01:08:05.801Z,33.25
2018-06-05T01:08:39.369Z,34.13
2018-06-05T01:09:12.845Z,31.07
2018-06-05T01:09:46.257Z,32.30
2018-06-05T01:10:19.563Z,32.13
2018-06-05T01:10:52.878Z,31.60
2018-06-05T01:11:26.795Z,33.60
2018-06-05T01:12:00.331Z,32.53
2018-06-05T01:12:33.605Z,32.50
2018-06-05T01:13:06.893Z,33.20
2018-06-05T01:13:40.192Z,31.87
2018-06-05T01:14:13.773Z,32.53
2018-06-05T01:14:46.906Z,32.43
2018-06-05T01:15:20.725Z,31.48
2018-06-05T01:15:54.077Z,31.30
2018-06-05T01:16:27.351Z,32.50
2018-06-05T01:17:02.547Z,32.30
2018-06-05T01:17:36.437Z,32.00
2018-06-05T01:18:10.016Z,31.17
2018-06-05T01:18:43.552Z,31.60
2018-06-05T01:19:17.425Z,30.75
2018-06-05T01:19:51.065Z,30.60
2018-06-05T01:20:24.600Z,30.85
2018-06-05T01:20:57.935Z,30.70
2018-06-05T01:21:31.487Z,31.42
2018-06-05T01:22:05.022Z,31.52
2018-06-05T01:22:38.569Z,30.60
2018-06-05T01:23:12.176Z,33.20
2018-06-05T01:23:45.461Z,32.90
2018-06-05T01:24:18.741Z,30.40
2018-06-05T01:24:52.295Z,31.85
2018-06-05T01:25:25.567Z,30.90
2018-06-05T01:25:58.845Z,31.50
2018-06-05T01:26:32.446Z,31.37
2018-06-05T01:27:05.725Z,32.30
2018-06-05T01:27:39.279Z,32.67
2018-06-05T01:28:12.588Z,30.30
2018-06-05T01:28:46.137Z,31.95
2018-06-05T01:29:19.435Z,31.70
2018-06-05T01:29:53.034Z,33.08
2018-06-05T01:30:26.575Z,31.35
2018-06-05T01:31:00.493Z,31.20
2018-06-05T01:31:34.051Z,29.82
2018-06-05T01:32:07.355Z,31.60
2018-06-05T01:32:40.919Z,31.87
2018-06-05T01:33:14.464Z,30.15
2018-06-05T01:33:48.367Z,31.50
2018-06-05T01:34:21.957Z,31.80
2018-06-05T01:34:55.527Z,32.45
2018-06-05T01:35:28.816Z,30.90
2018-06-05T01:36:02.389Z,32.08
2018-06-05T01:36:35.663Z,31.53
2018-06-05T01:37:09.261Z,32.15
2018-06-05T01:37:42.851Z,31.82
2018-06-05T01:38:16.427Z,32.17
2018-06-05T01:38:50.038Z,32.60
2018-06-05T01:39:23.585Z,31.45
2018-06-05T01:39:57.168Z,32.75
2018-06-05T01:40:30.722Z,31.07
2018-06-05T01:41:04.310Z,32.30
2018-06-05T01:41:38.098Z,33.67
2018-06-05T01:42:11.743Z,31.25
2018-06-05T01:42:45.433Z,32.42
2018-06-05T01:43:19.023Z,33.90
2018-06-05T01:43:52.595Z,31.23
2018-06-05T01:44:26.137Z,31.17
2018-06-05T01:44:59.751Z,32.65
2018-06-05T01:45:33.289Z,31.87
2018-06-05T01:46:06.646Z,33.08
2018-06-05T01:46:40.181Z,32.50
2018-06-05T01:47:13.731Z,32.03
2018-06-05T01:47:47.379Z,31.70
2018-06-05T01:48:20.936Z,34.65
2018-06-05T01:48:54.559Z,33.28
2018-06-05T01:49:33.540Z,32.05
2018-06-05T01:50:07.130Z,31.40
2018-06-05T01:50:40.649Z,32.42
2018-06-05T01:51:14.235Z,31.80
2018-06-05T01:51:47.514Z,31.53
2018-06-05T01:52:21.073Z,31.00
2018-06-05T01:52:54.382Z,31.80
2018-06-05T01:53:27.970Z,32.73
2018-06-05T01:54:01.300Z,32.30
2018-06-05T01:54:34.822Z,32.95
2018-06-05T01:55:08.398Z,33.78
2018-06-05T01:55:41.945Z,32.17
2018-06-05T01:56:15.243Z,32.87
2018-06-05T01:56:48.808Z,31.97
2018-06-05T01:57:22.328Z,32.63
2018-06-05T01:57:55.867Z,33.75
2018-06-05T01:58:29.417Z,33.50
2018-06-05T01:59:02.716Z,32.70
2018-06-05T01:59:35.998Z,32.10
2018-06-05T02:00:09.586Z,31.23
2018-06-05T02:00:43.132Z,33.02
2018-06-05T02:01:16.436Z,33.60
2018-06-05T02:01:49.971Z,31.00
2018-06-05T02:02:23.235Z,31.53
2018-06-05T02:02:56.785Z,31.57
2018-06-05T02:03:30.538Z,32.42
2018-06-05T02:04:04.085Z,31.10
2018-06-05T02:04:37.402Z,32.33
2018-06-05T02:05:10.989Z,32.78
2018-06-05T02:05:44.532Z,32.78
2018-06-05T02:06:18.086Z,32.10
2018-06-05T02:06:51.630Z,29.90
2018-06-05T02:07:24.967Z,32.40
2018-06-05T02:07:58.537Z,31.95
2018-06-05T02:08:32.102Z,28.85
2018-06-05T02:09:06.206Z,32.87
2018-06-05T02:09:39.766Z,31.10
2018-06-05T02:10:13.336Z,29.40
2018-06-05T02:10:46.942Z,30.92
2018-06-05T02:11:20.246Z,29.90
2018-06-05T02:11:53.834Z,33.05
2018-06-05T02:12:27.384Z,30.68
2018-06-05T02:13:00.940Z,30.90
2018-06-05T02:13:34.492Z,32.38
2018-06-05T02:14:07.790Z,31.10
2018-06-05T02:14:41.119Z,30.77
2018-06-05T02:15:14.438Z,30.43
2018-06-05T02:15:47.716Z,31.90
2018-06-05T02:16:21.326Z,32.60
2018-06-05T02:16:54.892Z,29.45
2018-06-05T02:17:28.428Z,31.80
2018-06-05T02:18:01.990Z,30.57
2018-06-05T02:18:35.530Z,31.23
2018-06-05T02:19:09.085Z,31.10
2018-06-05T02:19:42.646Z,30.50
2018-06-05T02:20:16.240Z,30.50
2018-06-05T02:20:50.850Z,31.73
2018-06-05T02:21:24.410Z,31.42
2018-06-05T02:21:57.968Z,30.72
2018-06-05T02:22:31.556Z,30.85
2018-06-05T02:23:05.144Z,31.45
2018-06-05T02:23:38.434Z,31.47
2018-06-05T02:24:11.731Z,30.33
2018-06-05T02:24:45.017Z,30.40
2018-06-05T02:25:18.376Z,29.60
2018-06-05T02:25:51.706Z,29.77
2018-06-05T02:26:25.262Z,28.12
2018-06-05T02:26:58.561Z,28.97
2018-06-05T02:27:31.848Z,29.83
2018-06-05T02:28:05.126Z,30.87
2018-06-05T02:28:38.659Z,28.62
2018-06-05T02:29:12.248Z,29.80
2018-06-05T02:29:45.834Z,29.20
2018-06-05T02:30:19.785Z,29.98
2018-06-05T02:30:53.369Z,28.73
2018-06-05T02:31:27.071Z,29.07
2018-06-05T02:32:00.703Z,28.95
2018-06-05T02:32:34.291Z,30.70
2018-06-05T02:33:07.820Z,28.32
2018-06-05T02:33:41.100Z,29.70
2018-06-05T02:34:14.418Z,28.17
2018-06-05T02:34:48.173Z,27.98
2018-06-05T02:35:21.732Z,28.25
2018-06-05T02:35:55.272Z,29.23
2018-06-05T02:36:28.805Z,27.75
2018-06-05T02:37:02.081Z,29.93
2018-06-05T02:37:35.569Z,28.50
2018-06-05T02:38:09.160Z,26.77
2018-06-05T02:38:42.450Z,28.00
2018-06-05T02:39:15.739Z,28.30
2018-06-05T02:39:49.006Z,27.47
2018-06-05T02:40:22.546Z,27.40
2018-06-05T02:40:56.078Z,27.90
2018-06-05T02:41:29.599Z,26.85
2018-06-05T02:42:02.886Z,26.97
2018-06-05T02:42:36.438Z,27.42
2018-06-05T02:43:09.715Z,27.20
2018-06-05T02:43:42.999Z,26.50
2018-06-05T02:44:16.558Z,27.40
2018-06-05T02:44:49.822Z,27.23
2018-06-05T02:45:23.157Z,26.13
2018-06-05T02:45:56.716Z,27.20
2018-06-05T02:46:30.005Z,27.27
2018-06-05T02:47:03.562Z,26.93
2018-06-05T02:47:36.860Z,27.67
2018-06-05T02:48:10.148Z,26.83
2018-06-05T02:48:43.712Z,27.55
2018-06-05T02:49:16.990Z,26.60
2018-06-05T02:49:50.294Z,26.13
2018-06-05T02:50:23.608Z,27.37
2018-06-05T02:50:57.148Z,24.80
2018-06-05T02:51:30.466Z,26.97
2018-06-05T02:52:03.954Z,26.20
2018-06-05T02:52:37.507Z,27.90
2018-06-05T02:53:10.896Z,26.63
2018-06-05T02:53:44.428Z,26.33
2018-06-05T02:54:17.944Z,27.22
2018-06-05T02:54:51.218Z,26.80
2018-06-05T02:55:24.542Z,25.43
2018-06-05T02:55:57.835Z,26.77
2018-06-05T02:56:31.383Z,25.43
2018-06-05T02:57:05.477Z,24.03
2018-06-05T02:57:52.230Z,24.07
2018-06-05T02:58:25.610Z,26.00
2018-06-05T02:58:58.890Z,25.17
2018-06-05T02:59:32.469Z,26.40
2018-06-05T03:00:06.120Z,25.90
2018-06-05T03:00:39.770Z,25.00
2018-06-05T03:01:13.322Z,25.82
2018-06-05T03:01:46.605Z,26.80
2018-06-05T03:02:20.196Z,26.45
2018-06-05T03:02:53.752Z,26.10
2018-06-05T03:03:27.288Z,25.32
2018-06-05T03:04:00.572Z,25.20
2018-06-05T03:04:34.144Z,25.43
2018-06-05T03:05:07.691Z,22.67
2018-06-05T03:05:41.310Z,26.73
2018-06-05T03:06:14.974Z,24.53
2018-06-05T03:06:48.274Z,26.07
2018-06-05T03:07:21.889Z,25.73
2018-06-05T03:07:55.179Z,25.40
2018-06-05T03:08:28.754Z,26.42
2018-06-05T03:09:02.067Z,26.53
2018-06-05T03:09:35.693Z,25.75
2018-06-05T03:10:09.019Z,26.40
2018-06-05T03:10:42.760Z,25.57
2018-06-05T03:11:16.878Z,25.63
2018-06-05T03:11:50.466Z,25.43
2018-06-05T03:12:23.746Z,26.60
2018-06-05T03:12:57.041Z,26.17
2018-06-05T03:13:30.357Z,26.70
2018-06-05T03:14:03.689Z,27.60
2018-06-05T03:14:37.253Z,25.00
2018-06-05T03:15:10.541Z,26.27
2018-06-05T03:15:43.854Z,26.80
2018-06-05T03:16:17.263Z,25.33
2018-06-05T03:16:50.934Z,27.67
2018-06-05T03:17:24.582Z,27.50
2018-06-05T03:17:58.156Z,26.48
2018-06-05T03:18:31.727Z,25.60
2018-06-05T03:19:05.741Z,25.70
2018-06-05T03:19:39.016Z,24.63
2018-06-05T03:20:12.636Z,25.30
2018-06-05T03:20:46.232Z,26.75
2018-06-05T03:21:19.778Z,26.33
2018-06-05T03:21:53.036Z,26.90
2018-06-05T03:22:26.320Z,25.37
2018-06-05T03:22:59.640Z,26.60
2018-06-05T03:23:32.932Z,27.40
2018-06-05T03:24:06.203Z,26.30
2018-06-05T03:24:39.477Z,26.00
2018-06-05T03:25:13.096Z,25.50
2018-06-05T03:25:46.421Z,25.43
2018-06-05T03:26:20.036Z,26.40
2018-06-05T03:26:53.278Z,25.80
2018-06-05T03:27:26.536Z,27.10
2018-06-05T03:27:59.828Z,25.70
2018-06-05T03:28:33.434Z,26.97
2018-06-05T03:29:06.678Z,26.23
2018-06-05T03:29:39.961Z,28.63
2018-06-05T03:30:13.239Z,26.63
2018-06-05T03:30:46.723Z,25.87
2018-06-05T03:31:19.986Z,28.77
2018-06-05T03:31:53.250Z,27.83
2018-06-05T03:32:26.513Z,27.73
2018-06-05T03:32:59.835Z,26.40
2018-06-05T03:33:33.171Z,25.23
2018-06-05T03:34:06.524Z,26.60
2018-06-05T03:34:39.978Z,25.73
2018-06-05T03:35:13.206Z,26.70
2018-06-05T03:35:46.537Z,25.53
2018-06-05T03:36:20.182Z,24.87
2018-06-05T03:36:53.486Z,24.57
2018-06-05T03:37:26.795Z,26.00
2018-06-05T03:38:00.256Z,26.30
2018-06-05T03:38:33.534Z,25.00
2018-06-05T03:39:07.361Z,25.33
2018-06-05T03:39:41.273Z,25.00
2018-06-05T03:40:14.574Z,24.37
2018-06-05T03:40:48.264Z,25.23
2018-06-05T03:41:21.598Z,25.90
2018-06-05T03:41:54.875Z,23.17
2018-06-05T03:42:28.457Z,24.20
2018-06-05T03:43:02.044Z,23.83
2018-06-05T03:43:35.337Z,24.40
2018-06-05T03:44:08.633Z,24.37
2018-06-05T03:44:41.945Z,23.93
2018-06-05T03:45:15.501Z,25.02
2018-06-05T03:45:48.834Z,25.70
2018-06-05T03:46:22.145Z,24.77
2018-06-05T03:46:55.448Z,22.47
2018-06-05T03:47:28.745Z,25.00
2018-06-05T03:48:02.039Z,24.47
2018-06-05T03:48:35.666Z,22.77
2018-06-05T03:49:08.947Z,23.57
2018-06-05T03:49:42.704Z,24.60
2018-06-05T03:50:16.046Z,22.20
2018-06-05T03:50:49.356Z,24.20
2018-06-05T03:51:22.639Z,21.70
2018-06-05T03:51:55.941Z,22.23
2018-06-05T03:52:29.530Z,23.50
2018-06-05T03:53:02.829Z,23.23
2018-06-05T03:53:36.216Z,22.50
2018-06-05T03:54:09.493Z,23.10
2018-06-05T03:54:42.808Z,24.00
2018-06-05T03:55:16.126Z,22.60
2018-06-05T03:55:49.483Z,22.00
2018-06-05T03:56:22.788Z,22.37
2018-06-05T03:56:56.106Z,21.50
2018-06-05T03:57:29.719Z,22.57
2018-06-05T03:58:03.035Z,22.63
2018-06-05T03:58:36.347Z,22.13
2018-06-05T03:59:09.640Z,22.27
2018-06-05T03:59:42.937Z,21.00
2018-06-05T04:00:16.499Z,21.95
2018-06-05T04:00:49.934Z,20.70
2018-06-05T04:01:23.285Z,20.73
2018-06-05T04:01:56.545Z,21.77
2018-06-05T04:02:29.832Z,22.10
2018-06-05T04:03:03.185Z,20.73
2018-06-05T04:03:36.514Z,21.60
2018-06-05T04:04:09.802Z,23.10
2018-06-05T04:04:43.081Z,19.77
2018-06-05T04:05:16.715Z,20.50
2018-06-05T04:05:50.632Z,20.82
2018-06-05T04:06:23.898Z,19.30
2018-06-05T04:06:57.193Z,20.60
2018-06-05T04:07:30.764Z,19.23
2018-06-05T04:08:04.051Z,19.80
2018-06-05T04:08:37.346Z,20.57
2018-06-05T04:09:10.645Z,19.30
2018-06-05T04:09:43.944Z,21.30
2018-06-05T04:10:17.252Z,20.50
2018-06-05T04:10:50.626Z,20.20
2018-06-05T04:11:23.980Z,20.17
2018-06-05T04:11:57.509Z,19.70
2018-06-05T04:12:30.923Z,19.00
2018-06-05T04:13:04.568Z,20.00
2018-06-05T04:13:37.846Z,18.33
2018-06-05T04:14:11.121Z,20.63
2018-06-05T04:14:44.399Z,18.90
2018-06-05T04:15:17.675Z,18.87
2018-06-05T04:15:50.973Z,20.27
2018-06-05T04:16:24.517Z,20.25
2018-06-05T04:16:57.777Z,19.23
2018-06-05T04:17:31.068Z,19.33
2018-06-05T04:18:04.365Z,19.30
2018-06-05T04:18:37.615Z,18.90
2018-06-05T04:19:10.888Z,19.27
2018-06-05T04:19:44.165Z,19.10
2018-06-05T04:20:17.410Z,18.10
2018-06-05T04:20:50.497Z,18.60
2018-06-05T04:21:23.790Z,18.67
2018-06-05T04:21:57.082Z,19.03
2018-06-05T04:22:30.337Z,19.87
2018-06-05T04:23:03.629Z,17.80
2018-06-05T04:23:36.932Z,18.40
2018-06-05T04:24:10.223Z,17.40
2018-06-05T04:24:43.529Z,18.10
2018-06-05T04:25:16.840Z,18.37
2018-06-05T04:25:50.147Z,17.73
2018-06-05T04:26:23.469Z,18.90
2018-06-05T04:26:56.767Z,18.57
2018-06-05T04:27:30.089Z,18.17
2018-06-05T04:28:03.347Z,19.10
2018-06-05T04:28:36.595Z,18.90
2018-06-05T04:29:09.931Z,18.57
2018-06-05T04:29:43.209Z,17.70
2018-06-05T04:30:16.517Z,17.50
2018-06-05T04:30:49.871Z,18.87
2018-06-05T04:31:23.245Z,19.80
2018-06-05T04:31:56.553Z,16.80
2018-06-05T04:32:29.858Z,17.73
2018-06-05T04:33:03.469Z,17.07
2018-06-05T04:33:36.772Z,18.60
2018-06-05T04:34:10.081Z,17.20
2018-06-05T04:34:43.391Z,17.90
2018-06-05T04:35:16.675Z,17.57
2018-06-05T04:35:49.991Z,16.43
2018-06-05T04:36:23.681Z,19.03
2018-06-05T04:36:57.000Z,16.20
2018-06-05T04:37:30.297Z,18.73
2018-06-05T04:38:03.933Z,16.83
2018-06-05T04:38:37.501Z,16.00
2018-06-05T04:39:10.775Z,17.47
2018-06-05T04:39:44.118Z,17.90
2018-06-05T04:40:17.501Z,16.60
2018-06-05T04:40:50.776Z,16.73
2018-06-05T04:41:24.099Z,15.97
2018-06-05T04:41:57.361Z,17.60
2018-06-05T04:42:30.657Z,16.83
2018-06-05T04:43:03.952Z,16.97
2018-06-05T04:43:37.243Z,17.23
2018-06-05T04:44:10.739Z,16.20
2018-06-05T04:44:44.089Z,16.87
2018-06-05T04:45:17.391Z,16.33
2018-06-05T04:45:50.481Z,15.97
2018-06-05T04:46:23.523Z,18.00
2018-06-05T04:46:56.938Z,17.13
2018-06-05T04:47:30.580Z,16.77
2018-06-05T04:48:03.900Z,17.93
2018-06-05T04:48:37.214Z,16.20
2018-06-05T04:49:10.500Z,16.47
2018-06-05T04:49:43.801Z,15.70
2018-06-05T04:50:17.149Z,15.10
2018-06-05T04:50:50.447Z,16.10
2018-06-05T04:51:24.433Z,18.00
2018-06-05T04:51:57.823Z,16.43
2018-06-05T04:52:31.473Z,16.13
2018-06-05T04:53:04.849Z,15.93
2018-06-05T04:53:38.179Z,16.53
2018-06-05T04:54:11.527Z,16.77
2018-06-05T04:54:45.154Z,16.53
2018-06-05T04:55:18.445Z,16.07
2018-06-05T04:55:52.072Z,17.67
2018-06-05T04:56:25.429Z,16.00
2018-06-05T04:56:59.145Z,16.40
2018-06-05T04:57:32.461Z,15.53
2018-06-05T04:58:05.762Z,15.63
2018-06-05T04:58:39.121Z,16.30
2018-06-05T04:59:12.469Z,16.97
2018-06-05T04:59:45.815Z,16.30
2018-06-05T05:00:19.264Z,16.67
2018-06-05T05:00:52.571Z,16.20
2018-06-05T05:01:25.923Z,16.07
2018-06-05T05:01:59.309Z,17.87
2018-06-05T05:02:32.601Z,16.60
2018-06-05T05:03:05.933Z,16.20
2018-06-05T05:03:39.267Z,15.90
2018-06-05T05:04:12.597Z,15.50
2018-06-05T05:04:45.689Z,15.43
2018-06-05T05:05:19.011Z,14.57
2018-06-05T05:05:52.351Z,15.63
2018-06-05T05:06:25.649Z,14.73
2018-06-05T05:06:58.985Z,15.67
2018-06-05T05:07:32.313Z,15.50
2018-06-05T05:08:05.762Z,15.20
2018-06-05T05:08:39.059Z,15.60
2018-06-05T05:09:12.357Z,16.03
2018-06-05T05:09:45.659Z,15.50
2018-06-05T05:10:18.919Z,15.30
2018-06-05T05:10:52.230Z,14.93
2018-06-05T05:11:25.543Z,14.93
2018-06-05T05:11:58.889Z,15.50
2018-06-05T05:12:32.164Z,14.90
2018-06-05T05:13:05.493Z,16.00
2018-06-05T05:13:38.803Z,14.90
2018-06-05T05:14:12.065Z,15.10
2018-06-05T05:14:45.131Z,13.93
2018-06-05T05:15:18.455Z,15.87
2018-06-05T05:15:51.737Z,14.67
2018-06-05T05:16:25.065Z,14.10
2018-06-05T05:16:58.887Z,15.00
2018-06-05T05:17:32.213Z,14.50
2018-06-05T05:18:05.543Z,13.27
2018-06-05T05:18:38.953Z,13.43
2018-06-05T05:19:12.591Z,14.10
2018-06-05T05:19:45.934Z,14.40
2018-06-05T05:20:19.253Z,13.57
2018-06-05T05:20:52.897Z,15.60
2018-06-05T05:21:26.197Z,15.00
2018-06-05T05:21:59.501Z,17.67
2018-06-05T05:22:32.837Z,17.07
2018-06-05T05:23:06.143Z,14.80
2018-06-05T05:23:39.467Z,14.00
2018-06-05T05:24:12.763Z,13.43
2018-06-05T05:24:46.086Z,12.50
2018-06-05T05:25:19.447Z,13.50
2018-06-05T05:25:53.063Z,12.97
2018-06-05T05:26:26.361Z,14.00
2018-06-05T05:26:59.693Z,13.60
2018-06-05T05:27:33.003Z,13.23
2018-06-05T05:28:06.323Z,13.77
2018-06-05T05:28:39.658Z,13.47
2018-06-05T05:29:13.295Z,12.90
2018-06-05T05:29:46.709Z,12.80
2018-06-05T05:30:20.142Z,13.87
2018-06-05T05:30:53.714Z,14.73
2018-06-05T05:31:27.284Z,13.97
2018-06-05T05:32:00.671Z,13.00
2018-06-05T05:32:34.043Z,12.97
2018-06-05T05:33:07.357Z,14.33
2018-06-05T05:33:40.641Z,13.40
2018-06-05T05:34:13.923Z,14.30
2018-06-05T05:34:47.231Z,13.40
2018-06-05T05:35:20.541Z,13.30
2018-06-05T05:35:53.887Z,12.93
2018-06-05T05:36:27.311Z,13.00
2018-06-05T05:37:00.595Z,13.90
2018-06-05T05:37:33.909Z,12.70
2018-06-05T05:38:07.268Z,12.70
2018-06-05T05:38:40.561Z,13.40
2018-06-05T05:39:13.897Z,13.00
2018-06-05T05:39:47.413Z,12.70
2018-06-05T05:40:20.717Z,13.07
2018-06-05T05:40:54.774Z,13.23
2018-06-05T05:41:28.057Z,13.20
2018-06-05T05:42:01.353Z,11.90
2018-06-05T05:42:34.703Z,13.93
2018-06-05T05:43:08.275Z,13.03
2018-06-05T05:43:41.533Z,12.30
2018-06-05T05:44:14.699Z,12.10
2018-06-05T05:44:47.977Z,14.33
2018-06-05T05:45:21.277Z,12.77
2018-06-05T05:45:54.605Z,13.77
2018-06-05T05:46:27.965Z,12.80
2018-06-05T05:47:01.286Z,12.80
2018-06-05T05:47:34.762Z,12.97
2018-06-05T05:48:08.106Z,11.03
2018-06-05T05:48:41.737Z,12.00
2018-06-05T05:49:15.039Z,12.40
2018-06-05T05:49:48.329Z,12.40
2018-06-05T05:50:21.633Z,12.13
2018-06-05T05:50:55.255Z,12.97
2018-06-05T05:51:28.773Z,11.80
2018-06-05T05:52:02.085Z,12.40
2018-06-05T05:52:35.367Z,11.83
2018-06-05T05:53:08.671Z,11.40
2018-06-05T05:53:41.953Z,13.10
2018-06-05T05:54:15.281Z,13.10
2018-06-05T05:54:48.589Z,12.70
2018-06-05T05:55:21.872Z,11.63
2018-06-05T05:55:55.186Z,15.60
2018-06-05T05:56:29.073Z,11.17
2018-06-05T05:57:02.348Z,11.57
2018-06-05T05:57:35.739Z,12.47
2018-06-05T05:58:09.042Z,11.10
2018-06-05T05:58:42.369Z,12.57
2018-06-05T05:59:16.016Z,11.60
2018-06-05T05:59:49.656Z,11.87
2018-06-05T06:00:22.937Z,12.60
2018-06-05T06:00:56.626Z,11.30
2018-06-05T06:01:29.924Z,10.87
2018-06-05T06:02:03.243Z,10.80
2018-06-05T06:02:36.572Z,10.97
2018-06-05T06:03:10.260Z,11.80
2018-06-05T06:03:43.630Z,10.80
2018-06-05T06:04:17.144Z,11.80
2018-06-05T06:04:50.769Z,11.77
2018-06-05T06:05:24.147Z,11.60
2018-06-05T06:05:57.512Z,11.43
2018-06-05T06:06:30.806Z,11.03
2018-06-05T06:07:04.132Z,10.70
2018-06-05T06:07:37.563Z,10.50
2018-06-05T06:08:10.873Z,11.90
2018-06-05T06:08:44.201Z,10.30
2018-06-05T06:09:17.478Z,10.50
2018-06-05T06:09:51.232Z,11.90
2018-06-05T06:10:24.541Z,10.57
2018-06-05T06:10:57.909Z,10.77
2018-06-05T06:11:31.377Z,10.40
2018-06-05T06:12:04.680Z,9.80
2018-06-05T06:12:38.016Z,10.37
2018-06-05T06:13:11.372Z,11.63
2018-06-05T06:13:44.699Z,10.53
2018-06-05T06:14:18.018Z,10.37
2018-06-05T06:14:51.315Z,10.37
2018-06-05T06:15:24.621Z,9.97
2018-06-05T06:15:57.906Z,10.47
2018-06-05T06:16:31.846Z,9.80
2018-06-05T06:17:05.236Z,8.80
2018-06-05T06:17:38.876Z,10.07
2018-06-05T06:18:12.172Z,9.80
2018-06-05T06:18:45.812Z,9.90
2018-06-05T06:19:19.076Z,9.20
2018-06-05T06:19:52.354Z,8.80
2018-06-05T06:20:25.875Z,9.10
2018-06-05T06:20:59.278Z,9.47
2018-06-05T06:21:32.546Z,9.63
2018-06-05T06:22:05.836Z,8.93
2018-06-05T06:22:39.114Z,8.60
2018-06-05T06:23:12.774Z,8.73
2018-06-05T06:23:46.074Z,8.70
2018-06-05T06:24:19.960Z,10.07
2018-06-05T06:24:53.246Z,9.50
2018-06-05T06:25:26.544Z,8.60
2018-06-05T06:25:59.880Z,9.30
2018-06-05T06:26:33.340Z,9.27
2018-06-05T06:27:06.669Z,9.00
2018-06-05T06:27:39.978Z,9.33
2018-06-05T06:28:13.296Z,7.57
2018-06-05T06:28:46.566Z,8.47
2018-06-05T06:29:19.874Z,8.80
2018-06-05T06:29:53.173Z,8.77
2018-06-05T06:30:26.485Z,9.20
2018-06-05T06:30:59.786Z,9.30
2018-06-05T06:31:33.170Z,9.37
2018-06-05T06:32:06.496Z,8.40
2018-06-05T06:32:39.781Z,9.03
2018-06-05T06:33:13.118Z,8.40
2018-06-05T06:33:46.448Z,9.13
2018-06-05T06:34:19.742Z,8.83
2018-06-05T06:34:53.106Z,8.73
2018-06-05T06:35:26.764Z,9.53
2018-06-05T06:36:00.052Z,8.57
2018-06-05T06:36:33.374Z,8.53
2018-06-05T06:37:07.008Z,8.60
2018-06-05T06:37:40.329Z,8.93
2018-06-05T06:38:13.636Z,7.57
2018-06-05T06:38:46.961Z,8.70
2018-06-05T06:39:20.240Z,8.13
2018-06-05T06:39:53.538Z,8.03
2018-06-05T06:40:26.881Z,9.57
2018-06-05T06:41:00.154Z,8.50
2018-06-05T06:41:33.439Z,8.97
2018-06-05T06:42:07.044Z,8.97
2018-06-05T06:42:40.418Z,8.50
2018-06-05T06:43:13.790Z,9.60
2018-06-05T06:43:47.071Z,8.27
2018-06-05T06:44:20.426Z,8.53
2018-06-05T06:44:54.048Z,9.47
2018-06-05T06:45:27.322Z,8.37
2018-06-05T06:46:00.842Z,8.37
2018-06-05T06:46:34.106Z,8.63
2018-06-05T06:47:07.421Z,9.80
2018-06-05T06:47:40.729Z,8.53
2018-06-05T06:48:14.110Z,9.20
2018-06-05T06:48:47.429Z,7.37
2018-06-05T06:49:20.896Z,9.10
2018-06-05T06:49:54.218Z,8.70
2018-06-05T06:50:28.115Z,9.27
2018-06-05T06:51:01.409Z,8.57
2018-06-05T06:51:34.664Z,8.53
2018-06-05T06:52:08.001Z,9.00
2018-06-05T06:52:41.286Z,8.77
2018-06-05T06:53:14.988Z,8.80
2018-06-05T06:53:48.298Z,8.93
2018-06-05T06:54:21.603Z,9.40
2018-06-05T06:54:54.861Z,9.30
2018-06-05T06:55:28.140Z,9.00
2018-06-05T06:56:01.804Z,9.47
2018-06-05T06:56:35.087Z,8.93
2018-06-05T06:57:08.364Z,8.33
2018-06-05T06:57:41.672Z,8.77
2018-06-05T06:58:15.009Z,9.90
2018-06-05T06:58:48.312Z,9.97
2018-06-05T06:59:21.589Z,10.00
2018-06-05T06:59:54.892Z,9.73
2018-06-05T07:00:28.154Z,11.77
2018-06-05T07:01:01.440Z,14.10
2018-06-05T07:01:34.711Z,14.27
2018-06-05T07:02:08.149Z,14.67
2018-06-05T07:02:41.480Z,17.53
2018-06-05T07:03:15.297Z,15.50
2018-06-05T07:03:48.558Z,15.07
2018-06-05T07:04:21.838Z,17.73
2018-06-05T07:04:55.172Z,17.13
2018-06-05T07:05:29.030Z,16.20
2018-06-05T07:06:02.336Z,16.67
2018-06-05T07:06:35.614Z,17.50
2018-06-05T07:07:08.910Z,18.40
2018-06-05T07:07:42.200Z,16.60
2018-06-05T07:08:15.532Z,16.53
2018-06-05T07:08:48.889Z,18.00
2018-06-05T07:09:22.192Z,16.47
2018-06-05T07:09:56.149Z,15.87
2018-06-05T07:10:29.426Z,16.57
2018-06-05T07:11:02.731Z,16.40
2018-06-05T07:11:36.364Z,16.20
2018-06-05T07:12:09.678Z,15.57
2018-06-05T07:12:42.950Z,16.90